This is the latest recevied weather packets stored in our database for station/object SQ5OUZ-8. If no packets are shown the sender has not sent any weather packets the latest 10 day(s).
| Time | Temp. | Humidity | Pressure | Rain* | Wind** | Luminosity | Snow |
|---|---|---|---|---|---|---|---|
| 1777943394 | 15.56° C | 52% | 1012 hPa | - | - | - | - |
| 1777942227 | 16.11° C | 50% | 1012 hPa | - | - | - | - |
| 1777941190 | 16.67° C | 48% | 1012 hPa | - | - | - | - |
| 1777940199 | 17.22° C | 46% | 1012 hPa | - | - | - | - |
| 1777939042 | 17.78° C | 44% | 1012 hPa | - | - | - | - |
| 1777938032 | 17.78° C | 44% | 1012 hPa | - | - | - | - |
| 1777936924 | 17.78° C | 43% | 1012 hPa | - | - | - | - |
| 1777935915 | 18.33° C | 41% | 1012 hPa | - | - | - | - |
| 1777934942 | 18.33° C | 40% | 1013 hPa | - | - | - | - |
| 1777933884 | 18.33° C | 39% | 1013 hPa | - | - | - | - |
| 1777932872 | 18.33° C | 38% | 1013 hPa | - | - | - | - |
| 1777931735 | 18.89° C | 36% | 1013 hPa | - | - | - | - |
| 1777930650 | 19.44° C | 34% | 1013 hPa | - | - | - | - |
| 1777929604 | 19.44° C | 33% | 1012 hPa | - | - | - | - |
| 1777928523 | 19.44° C | 35% | 1013 hPa | - | - | - | - |
| 1777927508 | 19.44° C | 35% | 1013 hPa | - | - | - | - |
| 1777926507 | 19.44° C | 35% | 1012 hPa | - | - | - | - |
| 1777925481 | 20° C | 34% | 1012 hPa | - | - | - | - |
| 1777924327 | 20.56° C | 35% | 1012 hPa | - | - | - | - |
| 1777923326 | 21.11° C | 35% | 1012 hPa | - | - | - | - |
| 1777922144 | 21.67° C | 33% | 1012 hPa | - | - | - | - |
| 1777921024 | 22.22° C | 32% | 1012 hPa | - | - | - | - |
| 1777919958 | 22.22° C | 32% | 1012 hPa | - | - | - | - |
| 1777918761 | 23.33° C | 30% | 1012 hPa | - | - | - | - |
| 1777917571 | 24.44° C | 26% | 1012 hPa | - | - | - | - |
* Rain since midnight (hover to see other rain measurements)
** Current wind speed in m/s (hover to see current wind gust speed)